Maersk Weymouth — VRFS9 — position and weather

sailwx.info

Track history (hours):
 
Tides and Currents Weather Stations Pressure Air Temp Water Temp Dewpoint Dewpoint Depression Visibility Wind Speed Wind Dir Waves Ship Positions

Maersk Weymouth

Last reported at 2015-Aug-23 22:33 UTC. Time now 2015-Sep-02 04:27 UTC.
Position N 25°21' W 079°53'.
Warning: this ship's position is 9 days out of date.

Length 172 m; draft 7.3 m.

Type: Cargo ship. MMSI: 477622100.

Date/timePositionNaut miles runAvg speedWind from/ knotsBaromVisibWave heightAir tempDewpointWater temp
2015-Aug-23 22:33N 25°21' W 079°53'1414.2
2015-Aug-23 21:34N 25°34' W 079°58'1313.2
2015-Aug-23 20:33N 25°46' W 080°05'4 4.0
2015-Aug-23 19:33N 25°46' W 080°09'0 0.0
2015-Aug-23 18:32N 25°46' W 080°09'0 0.0
2015-Aug-23 17:32N 25°46' W 080°09'0 0.0
2015-Aug-23 16:32N 25°46' W 080°09'0 0.0
2015-Aug-23 15:32N 25°46' W 080°09'0 0.0
2015-Aug-23 14:32N 25°46' W 080°09'0 0.0
2015-Aug-23 13:32N 25°46' W 080°09'0 0.0
2015-Aug-23 12:32N 25°46' W 080°09'0 0.0
2015-Aug-23 11:32N 25°46' W 080°09'1 0.9
2015-Aug-23 10:33N 25°46' W 080°09'6 6.4
2015-Aug-23 09:33N 25°47' W 080°02'10 9.7
2015-Aug-23 08:33N 25°56' W 079°58'1211.7
2015-Aug-23 07:33N 26°07' W 079°54'1212.5
2015-Aug-23 06:33N 26°20' W 079°52'1212.3
2015-Aug-23 05:33N 26°32' W 079°50'1612.6
2015-Aug-23 04:17N 26°48' W 079°48'912.2
2015-Aug-23 03:33N 26°57' W 079°46'27110.4
2015-Aug-22 01:31N 31°27' W 080°14'1211.9
2015-Aug-22 00:33N 31°37' W 080°22'1212.1
2015-Aug-21 23:33N 31°46' W 080°31'1212.5
2015-Aug-21 22:33N 31°56' W 080°39'1313.5
2015-Aug-21 21:33N 32°02' W 080°54'10 9.9
2015-Aug-21 20:33N 32°05' W 081°05'3 3.4
2015-Aug-21 19:33N 32°07' W 081°08'0 0.0
2015-Aug-21 18:33N 32°07' W 081°08'0 0.0
2015-Aug-21 17:33N 32°07' W 081°08'0 0.0
2015-Aug-21 16:33N 32°07' W 081°08'0 0.0
2015-Aug-21 15:33N 32°07' W 081°08'0 0.0
2015-Aug-21 14:33N 32°07' W 081°08'0 0.0
2015-Aug-21 13:21N 32°07' W 081°08'0 0.0
2015-Aug-21 12:33N 32°07' W 081°08'0 0.0
2015-Aug-21 11:33N 32°07' W 081°08'0 0.0
2015-Aug-21 10:33N 32°07' W 081°08'1 0.7
2015-Aug-21 09:34N 32°08' W 081°08'5 4.6
2015-Aug-21 08:33N 32°05' W 081°04'9 8.5
2015-Aug-21 07:33N 32°02' W 080°55'1312.9
2015-Aug-21 06:33N 31°58' W 080°40'6 6.4
2015-Aug-21 05:33N 31°59' W 080°33'4 3.5
2015-Aug-21 04:33N 31°60' W 080°29'6 5.6
2015-Aug-21 03:30N 32°01' W 080°22'40311.4
2015-Aug-19 16:06N 36°52' W 074°43'812.1
2015-Aug-19 15:28N 36°59' W 074°42'1111.9
2015-Aug-19 14:31N 37°11' W 074°41'1212.3
2015-Aug-19 13:33N 37°23' W 074°39'1212.6
2015-Aug-19 12:33N 37°35' W 074°38'1412.9
2015-Aug-19 11:29N 37°49' W 074°36'1213.0
2015-Aug-19 10:32N 38°01' W 074°35'1313.1
2015-Aug-19 09:33N 38°14' W 074°33'1312.5
2015-Aug-19 08:32N 38°25' W 074°42'1212.8
2015-Aug-19 07:33N 38°35' W 074°51'1313.1
2015-Aug-19 06:33N 38°45' W 075°01'1414.1
2015-Aug-19 05:33N 38°58' W 075°08'1615.6
2015-Aug-19 04:33N 39°12' W 075°17'1514.6
2015-Aug-19 03:33N 39°23' W 075°29'1414.2
2015-Aug-19 02:34N 39°37' W 075°35'1414.3
2015-Aug-19 01:33N 39°49' W 075°24'1212.4
2015-Aug-19 00:33N 39°53' W 075°09'1 1.3
2015-Aug-18 23:32N 39°54' W 075°08'0 0.0
2015-Aug-18 22:32N 39°54' W 075°08'0 0.0
2015-Aug-18 21:32N 39°54' W 075°08'0 0.0
2015-Aug-18 20:32N 39°54' W 075°08'0 0.0
2015-Aug-18 19:32N 39°54' W 075°08'0 0.0
2015-Aug-18 18:32N 39°54' W 075°08'0 0.0
2015-Aug-18 17:32N 39°54' W 075°08'0 0.0
2015-Aug-18 16:32N 39°54' W 075°08'0 0.0
2015-Aug-18 15:29N 39°54' W 075°08'0 0.0
2015-Aug-18 14:32N 39°54' W 075°08'0 0.0
2015-Aug-18 13:32N 39°54' W 075°08'0 0.0
2015-Aug-18 12:32N 39°54' W 075°08'2 1.6
2015-Aug-18 11:33N 39°53' W 075°09'9 8.6
2015-Aug-18 10:33N 39°51' W 075°20'1111.1
2015-Aug-18 09:33N 39°43' W 075°30'1212.4
2015-Aug-18 08:33N 39°31' W 075°33'1414.2
2015-Aug-18 07:33N 39°19' W 075°24'1515.2
2015-Aug-18 06:33N 39°06' W 075°12'1414.1
2015-Aug-18 05:33N 38°53' W 075°05'9 8.6
2015-Aug-18 04:34N 38°47' W 074°57'3 7.1
2015-Aug-18 04:11N 38°48' W 074°54'0 6.1
2015-Aug-18 04:09N 38°48' W 074°53'4 6.2
2015-Aug-18 03:33N 38°48' W 074°49'8 7.9
2015-Aug-18 02:33N 38°49' W 074°38'9 9.3
2015-Aug-18 01:33N 38°51' W 074°27'10 9.5
2015-Aug-18 00:34N 38°58' W 074°18'9 8.9
2015-Aug-17 23:34N 39°03' W 074°09'9 9.0
2015-Aug-17 22:34N 39°09' W 074°01'10 9.7
2015-Aug-17 21:34N 39°19' W 073°58'10 9.5
2015-Aug-17 20:33N 39°28' W 073°55'9 9.3
2015-Aug-17 19:34N 39°37' W 073°54'9 9.2
2015-Aug-17 18:34N 39°47' W 073°53'9 9.1
2015-Aug-17 17:34N 39°56' W 073°52'9 9.1
2015-Aug-17 16:33N 40°05' W 073°51'9 9.2
2015-Aug-17 15:33N 40°14' W 073°50'10 9.5
2015-Aug-17 14:33N 40°23' W 073°49'9 9.1
2015-Aug-17 13:33N 40°30' W 073°57'1110.9
2015-Aug-17 12:34N 40°39' W 074°05'5 4.8
2015-Aug-17 11:32N 40°38' W 074°11'0 0.0
2015-Aug-17 10:32N 40°38' W 074°11'0 0.0
2015-Aug-17 09:32N 40°38' W 074°11'0 0.0
2015-Aug-17 08:32N 40°38' W 074°11'0 0.0
2015-Aug-17 07:32N 40°38' W 074°11'0 0.0
2015-Aug-17 06:32N 40°38' W 074°11'0 0.0
2015-Aug-17 05:32N 40°38' W 074°11'0 0.0
2015-Aug-17 04:32N 40°38' W 074°11'0 0.0
2015-Aug-17 03:29N 40°38' W 074°11'0 0.0
2015-Aug-17 02:32N 40°38' W 074°11'0 0.0
2015-Aug-17 01:32N 40°38' W 074°11'0 0.0
2015-Aug-17 00:32N 40°38' W 074°11'0 0.0
2015-Aug-16 23:32N 40°38' W 074°11'0 0.0
2015-Aug-16 22:32N 40°38' W 074°11'0 0.0
2015-Aug-16 21:32N 40°38' W 074°11'0 0.0
2015-Aug-16 20:32N 40°38' W 074°11'0 0.0
2015-Aug-16 19:32N 40°38' W 074°11'0 0.0
2015-Aug-16 18:32N 40°38' W 074°11'0 0.0
2015-Aug-16 17:32N 40°38' W 074°11'0 0.0
2015-Aug-16 16:32N 40°38' W 074°11'1 0.7
2015-Aug-16 15:34N 40°39' W 074°11'7 7.1
2015-Aug-16 14:33N 40°36' W 074°02'1212.2
2015-Aug-16 13:33N 40°28' W 073°50'7 7.3
2015-Aug-16 12:33N 40°21' W 073°46'1211.6
2015-Aug-16 11:34N 40°10' W 073°45'1414.4
2015-Aug-16 10:33N 39°55' W 073°44'1514.6
2015-Aug-16 09:33N 39°41' W 073°42'1414.4
2015-Aug-16 08:33N 39°26' W 073°42'1414.2
2015-Aug-16 07:33N 39°12' W 073°42'1414.2
2015-Aug-16 06:33N 38°58' W 073°42'1414.3
2015-Aug-16 05:33N 38°43' W 073°42'1614.1
2015-Aug-16 04:24N 38°27' W 073°42'1213.9
2015-Aug-16 03:33N 38°15' W 073°42'1814.5
2015-Aug-16 02:17N 37°57' W 073°42'1114.7
2015-Aug-16 01:33N 37°46' W 073°42'1515.1
2015-Aug-16 00:33N 37°31' W 073°42'72315.4
2015-Aug-14 01:33N 26°38' W 079°49'1615.6
2015-Aug-14 00:33N 26°23' W 079°51'1616.4
2015-Aug-13 23:33N 26°06' W 079°54'1615.8
2015-Aug-13 22:33N 25°52' W 080°00'  
Track history (hours):
 
Tides and Currents Weather Stations Pressure Air Temp Water Temp Dewpoint Dewpoint Depression Visibility Wind Speed Wind Dir Waves Ship Positions

Maersk Weymouth

Last reported at 2015-Aug-23 22:33 UTC. Time now 2015-Sep-02 04:27 UTC.
Position N 25°21' W 079°53'.
Warning: this ship's position is 9 days out of date.

Length 172 m; draft 7.3 m.

Type: Cargo ship. MMSI: 477622100.

Date/timePositionNaut miles runAvg speedWind from/ knotsBaromVisibWave heightAir tempDewpointWater temp
2015-Aug-23 22:33N 25°21' W 079°53'1414.2
2015-Aug-23 21:34N 25°34' W 079°58'1313.2
2015-Aug-23 20:33N 25°46' W 080°05'4 4.0
2015-Aug-23 19:33N 25°46' W 080°09'0 0.0
2015-Aug-23 18:32N 25°46' W 080°09'0 0.0
2015-Aug-23 17:32N 25°46' W 080°09'0 0.0
2015-Aug-23 16:32N 25°46' W 080°09'0 0.0
2015-Aug-23 15:32N 25°46' W 080°09'0 0.0
2015-Aug-23 14:32N 25°46' W 080°09'0 0.0
2015-Aug-23 13:32N 25°46' W 080°09'0 0.0
2015-Aug-23 12:32N 25°46' W 080°09'0 0.0
2015-Aug-23 11:32N 25°46' W 080°09'1 0.9
2015-Aug-23 10:33N 25°46' W 080°09'6 6.4
2015-Aug-23 09:33N 25°47' W 080°02'10 9.7
2015-Aug-23 08:33N 25°56' W 079°58'1211.7
2015-Aug-23 07:33N 26°07' W 079°54'1212.5
2015-Aug-23 06:33N 26°20' W 079°52'1212.3
2015-Aug-23 05:33N 26°32' W 079°50'1612.6
2015-Aug-23 04:17N 26°48' W 079°48'912.2
2015-Aug-23 03:33N 26°57' W 079°46'27110.4
2015-Aug-22 01:31N 31°27' W 080°14'1211.9
2015-Aug-22 00:33N 31°37' W 080°22'1212.1
2015-Aug-21 23:33N 31°46' W 080°31'1212.5
2015-Aug-21 22:33N 31°56' W 080°39'1313.5
2015-Aug-21 21:33N 32°02' W 080°54'10 9.9
2015-Aug-21 20:33N 32°05' W 081°05'3 3.4
2015-Aug-21 19:33N 32°07' W 081°08'0 0.0
2015-Aug-21 18:33N 32°07' W 081°08'0 0.0
2015-Aug-21 17:33N 32°07' W 081°08'0 0.0
2015-Aug-21 16:33N 32°07' W 081°08'0 0.0
2015-Aug-21 15:33N 32°07' W 081°08'0 0.0
2015-Aug-21 14:33N 32°07' W 081°08'0 0.0
2015-Aug-21 13:21N 32°07' W 081°08'0 0.0
2015-Aug-21 12:33N 32°07' W 081°08'0 0.0
2015-Aug-21 11:33N 32°07' W 081°08'0 0.0
2015-Aug-21 10:33N 32°07' W 081°08'1 0.7
2015-Aug-21 09:34N 32°08' W 081°08'5 4.6
2015-Aug-21 08:33N 32°05' W 081°04'9 8.5
2015-Aug-21 07:33N 32°02' W 080°55'1312.9
2015-Aug-21 06:33N 31°58' W 080°40'6 6.4
2015-Aug-21 05:33N 31°59' W 080°33'4 3.5
2015-Aug-21 04:33N 31°60' W 080°29'6 5.6
2015-Aug-21 03:30N 32°01' W 080°22'40311.4
2015-Aug-19 16:06N 36°52' W 074°43'812.1
2015-Aug-19 15:28N 36°59' W 074°42'1111.9
2015-Aug-19 14:31N 37°11' W 074°41'1212.3
2015-Aug-19 13:33N 37°23' W 074°39'1212.6
2015-Aug-19 12:33N 37°35' W 074°38'1412.9
2015-Aug-19 11:29N 37°49' W 074°36'1213.0
2015-Aug-19 10:32N 38°01' W 074°35'1313.1
2015-Aug-19 09:33N 38°14' W 074°33'1312.5
2015-Aug-19 08:32N 38°25' W 074°42'1212.8
2015-Aug-19 07:33N 38°35' W 074°51'1313.1
2015-Aug-19 06:33N 38°45' W 075°01'1414.1
2015-Aug-19 05:33N 38°58' W 075°08'1615.6
2015-Aug-19 04:33N 39°12' W 075°17'1514.6
2015-Aug-19 03:33N 39°23' W 075°29'1414.2
2015-Aug-19 02:34N 39°37' W 075°35'1414.3
2015-Aug-19 01:33N 39°49' W 075°24'1212.4
2015-Aug-19 00:33N 39°53' W 075°09'1 1.3
2015-Aug-18 23:32N 39°54' W 075°08'0 0.0
2015-Aug-18 22:32N 39°54' W 075°08'0 0.0
2015-Aug-18 21:32N 39°54' W 075°08'0 0.0
2015-Aug-18 20:32N 39°54' W 075°08'0 0.0
2015-Aug-18 19:32N 39°54' W 075°08'0 0.0
2015-Aug-18 18:32N 39°54' W 075°08'0 0.0
2015-Aug-18 17:32N 39°54' W 075°08'0 0.0
2015-Aug-18 16:32N 39°54' W 075°08'0 0.0
2015-Aug-18 15:29N 39°54' W 075°08'0 0.0
2015-Aug-18 14:32N 39°54' W 075°08'0 0.0
2015-Aug-18 13:32N 39°54' W 075°08'0 0.0
2015-Aug-18 12:32N 39°54' W 075°08'2 1.6
2015-Aug-18 11:33N 39°53' W 075°09'9 8.6
2015-Aug-18 10:33N 39°51' W 075°20'1111.1
2015-Aug-18 09:33N 39°43' W 075°30'1212.4
2015-Aug-18 08:33N 39°31' W 075°33'1414.2
2015-Aug-18 07:33N 39°19' W 075°24'1515.2
2015-Aug-18 06:33N 39°06' W 075°12'1414.1
2015-Aug-18 05:33N 38°53' W 075°05'9 8.6
2015-Aug-18 04:34N 38°47' W 074°57'3 7.1
2015-Aug-18 04:11N 38°48' W 074°54'0 6.1
2015-Aug-18 04:09N 38°48' W 074°53'4 6.2
2015-Aug-18 03:33N 38°48' W 074°49'8 7.9
2015-Aug-18 02:33N 38°49' W 074°38'9 9.3
2015-Aug-18 01:33N 38°51' W 074°27'10 9.5
2015-Aug-18 00:34N 38°58' W 074°18'9 8.9
2015-Aug-17 23:34N 39°03' W 074°09'9 9.0
2015-Aug-17 22:34N 39°09' W 074°01'10 9.7
2015-Aug-17 21:34N 39°19' W 073°58'10 9.5
2015-Aug-17 20:33N 39°28' W 073°55'9 9.3
2015-Aug-17 19:34N 39°37' W 073°54'9 9.2
2015-Aug-17 18:34N 39°47' W 073°53'9 9.1
2015-Aug-17 17:34N 39°56' W 073°52'9 9.1
2015-Aug-17 16:33N 40°05' W 073°51'9 9.2
2015-Aug-17 15:33N 40°14' W 073°50'10 9.5
2015-Aug-17 14:33N 40°23' W 073°49'9 9.1
2015-Aug-17 13:33N 40°30' W 073°57'1110.9
2015-Aug-17 12:34N 40°39' W 074°05'5 4.8
2015-Aug-17 11:32N 40°38' W 074°11'0 0.0
2015-Aug-17 10:32N 40°38' W 074°11'0 0.0
2015-Aug-17 09:32N 40°38' W 074°11'0 0.0
2015-Aug-17 08:32N 40°38' W 074°11'0 0.0
2015-Aug-17 07:32N 40°38' W 074°11'0 0.0
2015-Aug-17 06:32N 40°38' W 074°11'0 0.0
2015-Aug-17 05:32N 40°38' W 074°11'0 0.0
2015-Aug-17 04:32N 40°38' W 074°11'0 0.0
2015-Aug-17 03:29N 40°38' W 074°11'0 0.0
2015-Aug-17 02:32N 40°38' W 074°11'0 0.0
2015-Aug-17 01:32N 40°38' W 074°11'0 0.0
2015-Aug-17 00:32N 40°38' W 074°11'0 0.0
2015-Aug-16 23:32N 40°38' W 074°11'0 0.0
2015-Aug-16 22:32N 40°38' W 074°11'0 0.0
2015-Aug-16 21:32N 40°38' W 074°11'0 0.0
2015-Aug-16 20:32N 40°38' W 074°11'0 0.0
2015-Aug-16 19:32N 40°38' W 074°11'0 0.0
2015-Aug-16 18:32N 40°38' W 074°11'0 0.0
2015-Aug-16 17:32N 40°38' W 074°11'0 0.0
2015-Aug-16 16:32N 40°38' W 074°11'1 0.7
2015-Aug-16 15:34N 40°39' W 074°11'7 7.1
2015-Aug-16 14:33N 40°36' W 074°02'1212.2
2015-Aug-16 13:33N 40°28' W 073°50'7 7.3
2015-Aug-16 12:33N 40°21' W 073°46'1211.6
2015-Aug-16 11:34N 40°10' W 073°45'1414.4
2015-Aug-16 10:33N 39°55' W 073°44'1514.6
2015-Aug-16 09:33N 39°41' W 073°42'1414.4
2015-Aug-16 08:33N 39°26' W 073°42'1414.2
2015-Aug-16 07:33N 39°12' W 073°42'1414.2
2015-Aug-16 06:33N 38°58' W 073°42'1414.3
2015-Aug-16 05:33N 38°43' W 073°42'1614.1
2015-Aug-16 04:24N 38°27' W 073°42'1213.9
2015-Aug-16 03:33N 38°15' W 073°42'1814.5
2015-Aug-16 02:17N 37°57' W 073°42'1114.7
2015-Aug-16 01:33N 37°46' W 073°42'1515.1
2015-Aug-16 00:33N 37°31' W 073°42'72315.4
2015-Aug-14 01:33N 26°38' W 079°49'1615.6
2015-Aug-14 00:33N 26°23' W 079°51'1616.4
2015-Aug-13 23:33N 26°06' W 079°54'1615.8
2015-Aug-13 22:33N 25°52' W 080°00'  

Dump ship's entire track history